Aeroporto :
LOGIN :

Iscrizione | Disclaimer

   EN    FR    IT 

 










Sommario :    VFR   VFR Marginale   IFR   IFR Intensivo   IFR Molto Intensivo
Visibilità : 
Base nubi : 
>= 8 km
>= 3000ft
5 / 8 km
1000 / 3000 ft
1500m / 5 km
500 / 1000 ft
800 / 1500m
200 / 500 ft
< 800m
< 200 ft
Simboli :   Temporali  Nebbia  Neve Forte  Precipitazioni Forti  Vento > 20 kt
SIGMETs :   Varie  Temporali  Ghiacco  Turbolenza  Onda orograficha  Ceneri Vulcaniche






- Altitudine del aeroporto : 765 ft


LOAV - Vöslau

ULTIMO METAR :
  • 231100Z 24012G23KT 40KM BKN035SC 15/05

METARs OBSOLETI :
  • 231000Z 26012G23KT 40KM BKN045SC 14/05
  • 230900Z 28015KT 40KM BKN040SC 13/04

TAF TAF LOAV
Valido dal 23 a 09 ore il 23 a 18 ore UTC


230800Z 2309/2318 27018G28KT 9999 SCT040 SCT100
TEMPO 2309/2315 24014KT
BECMG 2315/2318 27025G38KT



MetMap, La meteo Aeronautica in un colpo d'occhio ! - Copyright ORBIFLY Dicembre 2007 - Disclaimer

ORBIFLY MET'MAP TEAM :

Programmazione e sviluppo : Alexandra Zaïnal
Concezione : Baudouin d'Aumeries
Aiuto per la programmazione : Marc-Olivier Méhu
Supporto tecnico e logistico : Manuel Goepfert
Aiuto per la traduzione : Arnaldo La Scala

Contatto : metmap@orbifly.com




FONTI E CREDITI :

   NOAA